sensor_id;sensor_type;location;lat;lon;timestamp;pressure;altitude;pressure_sealevel;temperature;humidity
43155;BME280;34212;51.018;13.586;2024-01-11T00:04:54;99130.00;;;-3.53;71.42
43155;BME280;34212;51.018;13.586;2024-01-11T00:09:55;99129.22;;;-3.55;71.25
43155;BME280;34212;51.018;13.586;2024-01-11T00:14:57;99126.66;;;-3.57;70.77
43155;BME280;34212;51.018;13.586;2024-01-11T00:20:00;99132.06;;;-3.61;70.92
43155;BME280;34212;51.018;13.586;2024-01-11T00:25:02;99122.88;;;-3.72;70.96
43155;BME280;34212;51.018;13.586;2024-01-11T00:30:05;99122.22;;;-3.77;71.20
43155;BME280;34212;51.018;13.586;2024-01-11T00:35:12;99118.63;;;-3.74;71.11
43155;BME280;34212;51.018;13.586;2024-01-11T00:40:14;99111.56;;;-3.70;71.21
43155;BME280;34212;51.018;13.586;2024-01-11T00:45:18;99111.50;;;-3.69;70.61
43155;BME280;34212;51.018;13.586;2024-01-11T00:50:22;99090.16;;;-3.79;71.03
43155;BME280;34212;51.018;13.586;2024-01-11T00:55:25;99097.28;;;-3.84;70.40
43155;BME280;34212;51.018;13.586;2024-01-11T01:00:26;99097.63;;;-3.93;70.58
43155;BME280;34212;51.018;13.586;2024-01-11T01:05:30;99088.34;;;-4.00;70.31
43155;BME280;34212;51.018;13.586;2024-01-11T01:10:32;99085.97;;;-4.06;70.34
43155;BME280;34212;51.018;13.586;2024-01-11T01:15:33;99081.00;;;-4.12;70.00
43155;BME280;34212;51.018;13.586;2024-01-11T01:20:35;99082.78;;;-4.14;70.66
43155;BME280;34212;51.018;13.586;2024-01-11T01:25:36;99056.97;;;-4.21;70.57
43155;BME280;34212;51.018;13.586;2024-01-11T01:30:38;99076.19;;;-4.23;70.24
43155;BME280;34212;51.018;13.586;2024-01-11T01:35:42;99077.94;;;-4.24;70.39
43155;BME280;34212;51.018;13.586;2024-01-11T01:40:44;99093.63;;;-4.25;70.19
43155;BME280;34212;51.018;13.586;2024-01-11T01:45:46;99097.88;;;-4.23;70.98
43155;BME280;34212;51.018;13.586;2024-01-11T01:50:48;99094.94;;;-4.13;70.30
43155;BME280;34212;51.018;13.586;2024-01-11T01:55:52;99094.59;;;-4.04;70.27
43155;BME280;34212;51.018;13.586;2024-01-11T02:00:57;99090.72;;;-3.94;69.84
43155;BME280;34212;51.018;13.586;2024-01-11T02:06:02;99087.78;;;-3.85;70.12
43155;BME280;34212;51.018;13.586;2024-01-11T02:11:11;99092.81;;;-3.80;70.28
43155;BME280;34212;51.018;13.586;2024-01-11T02:16:13;99092.75;;;-3.79;70.16
43155;BME280;34212;51.018;13.586;2024-01-11T02:21:15;99102.22;;;-3.76;70.23
43155;BME280;34212;51.018;13.586;2024-01-11T02:26:17;99093.44;;;-3.74;70.33
43155;BME280;34212;51.018;13.586;2024-01-11T02:31:18;99085.66;;;-3.75;70.16
43155;BME280;34212;51.018;13.586;2024-01-11T02:36:21;99095.41;;;-3.80;70.36
43155;BME280;34212;51.018;13.586;2024-01-11T02:41:31;99093.09;;;-3.88;70.16
43155;BME280;34212;51.018;13.586;2024-01-11T02:46:36;99116.75;;;-3.92;70.19
43155;BME280;34212;51.018;13.586;2024-01-11T02:51:41;99117.75;;;-3.97;70.35
43155;BME280;34212;51.018;13.586;2024-01-11T02:56:45;99120.81;;;-4.09;70.23
43155;BME280;34212;51.018;13.586;2024-01-11T03:01:46;99138.66;;;-4.22;70.80
43155;BME280;34212;51.018;13.586;2024-01-11T03:06:52;99124.81;;;-4.24;70.81
43155;BME280;34212;51.018;13.586;2024-01-11T03:12:02;99118.84;;;-4.26;70.73
43155;BME280;34212;51.018;13.586;2024-01-11T03:17:05;99110.09;;;-4.25;70.55
43155;BME280;34212;51.018;13.586;2024-01-11T03:22:11;99120.81;;;-4.32;70.76
43155;BME280;34212;51.018;13.586;2024-01-11T03:27:15;99123.56;;;-4.37;69.97
43155;BME280;34212;51.018;13.586;2024-01-11T03:32:20;99101.25;;;-4.44;70.21
43155;BME280;34212;51.018;13.586;2024-01-11T03:37:21;99085.63;;;-4.44;69.97
43155;BME280;34212;51.018;13.586;2024-01-11T03:42:23;99097.75;;;-4.43;69.91
43155;BME280;34212;51.018;13.586;2024-01-11T03:47:29;99073.53;;;-4.45;70.04
43155;BME280;34212;51.018;13.586;2024-01-11T03:52:31;99047.31;;;-4.41;69.40
43155;BME280;34212;51.018;13.586;2024-01-11T03:57:40;99040.22;;;-4.37;69.89
43155;BME280;34212;51.018;13.586;2024-01-11T04:02:49;99028.81;;;-4.33;69.69
43155;BME280;34212;51.018;13.586;2024-01-11T04:07:50;99043.19;;;-4.23;70.22
43155;BME280;34212;51.018;13.586;2024-01-11T04:12:55;99043.78;;;-4.16;70.13
43155;BME280;34212;51.018;13.586;2024-01-11T04:17:56;99039.19;;;-4.09;70.04
43155;BME280;34212;51.018;13.586;2024-01-11T04:22:58;99055.66;;;-4.09;70.01
43155;BME280;34212;51.018;13.586;2024-01-11T04:28:00;99068.66;;;-4.07;69.75
43155;BME280;34212;51.018;13.586;2024-01-11T04:33:01;99082.44;;;-4.05;70.21
43155;BME280;34212;51.018;13.586;2024-01-11T04:38:03;99079.75;;;-4.02;70.02
43155;BME280;34212;51.018;13.586;2024-01-11T04:43:08;99091.81;;;-4.00;69.57
43155;BME280;34212;51.018;13.586;2024-01-11T04:48:10;99109.81;;;-3.93;69.73
43155;BME280;34212;51.018;13.586;2024-01-11T04:53:14;99121.56;;;-3.82;70.27
43155;BME280;34212;51.018;13.586;2024-01-11T04:58:21;99110.78;;;-3.73;70.73
43155;BME280;34212;51.018;13.586;2024-01-11T05:03:22;99113.59;;;-3.79;70.60
43155;BME280;34212;51.018;13.586;2024-01-11T05:08:28;99124.25;;;-4.08;70.66
43155;BME280;34212;51.018;13.586;2024-01-11T05:13:30;99128.44;;;-4.28;71.62
43155;BME280;34212;51.018;13.586;2024-01-11T05:18:31;99103.22;;;-4.26;71.38
43155;BME280;34212;51.018;13.586;2024-01-11T05:23:35;99076.81;;;-4.16;71.00
43155;BME280;34212;51.018;13.586;2024-01-11T05:28:37;99077.66;;;-4.16;70.55
43155;BME280;34212;51.018;13.586;2024-01-11T05:33:40;99075.06;;;-4.16;70.46
43155;BME280;34212;51.018;13.586;2024-01-11T05:38:42;99091.75;;;-4.22;70.28
43155;BME280;34212;51.018;13.586;2024-01-11T05:43:44;99104.16;;;-4.28;70.81
43155;BME280;34212;51.018;13.586;2024-01-11T05:48:46;99085.09;;;-4.29;70.57
43155;BME280;34212;51.018;13.586;2024-01-11T05:53:50;99091.09;;;-4.27;71.04
43155;BME280;34212;51.018;13.586;2024-01-11T05:58:52;99104.22;;;-4.30;70.60
43155;BME280;34212;51.018;13.586;2024-01-11T06:03:53;99109.66;;;-4.36;70.68
43155;BME280;34212;51.018;13.586;2024-01-11T06:08:55;99124.50;;;-4.39;70.65
43155;BME280;34212;51.018;13.586;2024-01-11T06:14:04;99119.38;;;-4.41;70.54
43155;BME280;34212;51.018;13.586;2024-01-11T06:19:08;99108.00;;;-4.38;70.11
43155;BME280;34212;51.018;13.586;2024-01-11T06:24:10;99128.03;;;-4.41;70.31
43155;BME280;34212;51.018;13.586;2024-01-11T06:29:12;99129.00;;;-4.43;70.23
43155;BME280;34212;51.018;13.586;2024-01-11T06:34:13;99137.59;;;-4.41;70.39
43155;BME280;34212;51.018;13.586;2024-01-11T06:39:17;99141.03;;;-4.39;70.47
43155;BME280;34212;51.018;13.586;2024-01-11T06:44:18;99136.75;;;-4.42;70.43
43155;BME280;34212;51.018;13.586;2024-01-11T06:49:20;99118.34;;;-4.37;70.24
43155;BME280;34212;51.018;13.586;2024-01-11T06:54:22;99104.97;;;-4.26;70.15
43155;BME280;34212;51.018;13.586;2024-01-11T06:59:24;99103.75;;;-4.18;70.35
43155;BME280;34212;51.018;13.586;2024-01-11T07:04:27;99067.81;;;-4.08;70.58
43155;BME280;34212;51.018;13.586;2024-01-11T07:09:32;99044.16;;;-4.03;70.39
43155;BME280;34212;51.018;13.586;2024-01-11T07:14:34;99043.13;;;-3.99;71.14
43155;BME280;34212;51.018;13.586;2024-01-11T07:19:35;99057.69;;;-3.93;71.46
43155;BME280;34212;51.018;13.586;2024-01-11T07:24:38;99033.03;;;-3.85;71.74
43155;BME280;34212;51.018;13.586;2024-01-11T07:29:39;99030.75;;;-3.70;72.19
43155;BME280;34212;51.018;13.586;2024-01-11T07:34:41;99039.56;;;-3.53;72.81
43155;BME280;34212;51.018;13.586;2024-01-11T07:39:43;99047.56;;;-3.35;72.97
43155;BME280;34212;51.018;13.586;2024-01-11T07:44:44;99054.69;;;-3.18;73.03
43155;BME280;34212;51.018;13.586;2024-01-11T07:49:46;99054.19;;;-3.06;73.19
43155;BME280;34212;51.018;13.586;2024-01-11T07:54:48;99061.72;;;-2.98;73.16
43155;BME280;34212;51.018;13.586;2024-01-11T07:59:49;99052.97;;;-2.97;73.18
43155;BME280;34212;51.018;13.586;2024-01-11T08:04:51;99060.56;;;-2.93;73.17
43155;BME280;34212;51.018;13.586;2024-01-11T08:09:52;99069.06;;;-2.88;73.23
43155;BME280;34212;51.018;13.586;2024-01-11T08:14:54;99080.03;;;-3.00;73.47
43155;BME280;34212;51.018;13.586;2024-01-11T08:19:55;99086.84;;;-3.18;73.90
43155;BME280;34212;51.018;13.586;2024-01-11T08:24:57;99054.56;;;-3.15;74.62
43155;BME280;34212;51.018;13.586;2024-01-11T08:29:59;99059.88;;;-2.96;74.43
43155;BME280;34212;51.018;13.586;2024-01-11T08:35:04;99070.31;;;-2.96;74.24
43155;BME280;34212;51.018;13.586;2024-01-11T08:40:06;99089.00;;;-2.85;74.81
43155;BME280;34212;51.018;13.586;2024-01-11T08:45:08;99088.38;;;-2.71;74.95
43155;BME280;34212;51.018;13.586;2024-01-11T08:50:14;99073.03;;;-2.59;75.10
43155;BME280;34212;51.018;13.586;2024-01-11T08:55:16;99076.38;;;-2.55;74.94
43155;BME280;34212;51.018;13.586;2024-01-11T09:00:17;99082.25;;;-2.50;75.19
43155;BME280;34212;51.018;13.586;2024-01-11T09:05:20;99058.19;;;-2.38;75.57
43155;BME280;34212;51.018;13.586;2024-01-11T09:10:22;99067.16;;;-2.24;75.94
43155;BME280;34212;51.018;13.586;2024-01-11T09:15:24;99068.59;;;-2.17;75.82
43155;BME280;34212;51.018;13.586;2024-01-11T09:20:25;99072.78;;;-2.13;75.52
43155;BME280;34212;51.018;13.586;2024-01-11T09:25:27;99075.06;;;-2.05;75.88
43155;BME280;34212;51.018;13.586;2024-01-11T09:30:28;99085.22;;;-1.99;76.62
43155;BME280;34212;51.018;13.586;2024-01-11T09:35:30;99093.56;;;-1.91;76.31
43155;BME280;34212;51.018;13.586;2024-01-11T09:40:32;99093.34;;;-1.87;76.28
43155;BME280;34212;51.018;13.586;2024-01-11T09:45:34;99088.31;;;-1.72;76.82
43155;BME280;34212;51.018;13.586;2024-01-11T09:50:36;99089.13;;;-1.53;76.98
43155;BME280;34212;51.018;13.586;2024-01-11T09:55:39;99115.84;;;-1.27;77.77
43155;BME280;34212;51.018;13.586;2024-01-11T10:00:41;99091.69;;;-1.15;77.00
43155;BME280;34212;51.018;13.586;2024-01-11T10:05:44;99085.63;;;-0.98;77.55
43155;BME280;34212;51.018;13.586;2024-01-11T10:10:46;99078.63;;;-0.80;78.21
43155;BME280;34212;51.018;13.586;2024-01-11T10:15:47;99063.50;;;-0.58;77.97
43155;BME280;34212;51.018;13.586;2024-01-11T10:20:49;99063.66;;;-0.61;77.68
43155;BME280;34212;51.018;13.586;2024-01-11T10:25:51;99046.25;;;-0.62;78.04
43155;BME280;34212;51.018;13.586;2024-01-11T10:30:52;99044.53;;;-0.63;77.51
43155;BME280;34212;51.018;13.586;2024-01-11T10:35:54;99045.00;;;-0.72;77.96
43155;BME280;34212;51.018;13.586;2024-01-11T10:40:59;99031.16;;;-0.74;77.55
43155;BME280;34212;51.018;13.586;2024-01-11T10:46:01;99044.16;;;-0.73;77.49
43155;BME280;34212;51.018;13.586;2024-01-11T10:51:08;99034.84;;;-0.78;77.64
43155;BME280;34212;51.018;13.586;2024-01-11T10:56:15;99025.81;;;-0.73;77.75
43155;BME280;34212;51.018;13.586;2024-01-11T11:01:20;99032.38;;;-0.64;78.17
43155;BME280;34212;51.018;13.586;2024-01-11T11:06:22;99013.53;;;-0.55;78.60
43155;BME280;34212;51.018;13.586;2024-01-11T11:11:24;99007.03;;;-0.48;78.27
43155;BME280;34212;51.018;13.586;2024-01-11T11:16:26;99005.38;;;-0.49;78.12
43155;BME280;34212;51.018;13.586;2024-01-11T11:21:27;98993.94;;;-0.48;78.14
43155;BME280;34212;51.018;13.586;2024-01-11T11:26:32;98987.47;;;-0.40;77.81
43155;BME280;34212;51.018;13.586;2024-01-11T11:31:41;98986.59;;;-0.25;77.99
43155;BME280;34212;51.018;13.586;2024-01-11T11:36:46;98978.69;;;-0.08;78.02
43155;BME280;34212;51.018;13.586;2024-01-11T11:41:48;98967.94;;;0.13;78.25
43155;BME280;34212;51.018;13.586;2024-01-11T11:46:51;98955.38;;;0.34;78.76
43155;BME280;34212;51.018;13.586;2024-01-11T11:51:55;98962.47;;;0.48;76.48
43155;BME280;34212;51.018;13.586;2024-01-11T11:56:57;98956.75;;;0.55;76.03
43155;BME280;34212;51.018;13.586;2024-01-11T12:01:59;98955.69;;;0.74;76.25
43155;BME280;34212;51.018;13.586;2024-01-11T12:07:01;98975.50;;;0.79;73.42
43155;BME280;34212;51.018;13.586;2024-01-11T12:12:03;98969.09;;;0.69;74.46
43155;BME280;34212;51.018;13.586;2024-01-11T12:17:16;98966.25;;;0.58;72.40
43155;BME280;34212;51.018;13.586;2024-01-11T12:22:17;98964.81;;;0.52;72.25
43155;BME280;34212;51.018;13.586;2024-01-11T12:27:20;98952.53;;;0.53;72.64
43155;BME280;34212;51.018;13.586;2024-01-11T12:32:22;98950.41;;;0.59;73.11
43155;BME280;34212;51.018;13.586;2024-01-11T12:37:24;98932.53;;;0.66;72.89
43155;BME280;34212;51.018;13.586;2024-01-11T12:42:27;98946.97;;;0.73;72.99
43155;BME280;34212;51.018;13.586;2024-01-11T12:47:28;98937.59;;;0.69;71.98
43155;BME280;34212;51.018;13.586;2024-01-11T12:52:30;98940.94;;;0.57;70.93
43155;BME280;34212;51.018;13.586;2024-01-11T12:57:31;98918.22;;;0.56;71.86
43155;BME280;34212;51.018;13.586;2024-01-11T13:02:34;98920.84;;;0.56;72.64
43155;BME280;34212;51.018;13.586;2024-01-11T13:07:37;98916.53;;;0.55;72.49
43155;BME280;34212;51.018;13.586;2024-01-11T13:12:38;98918.22;;;0.56;73.18
43155;BME280;34212;51.018;13.586;2024-01-11T13:17:40;98934.25;;;0.51;72.75
43155;BME280;34212;51.018;13.586;2024-01-11T13:22:41;98953.50;;;0.36;71.76
43155;BME280;34212;51.018;13.586;2024-01-11T13:27:43;98955.03;;;0.24;71.19
43155;BME280;34212;51.018;13.586;2024-01-11T13:32:44;98945.16;;;0.13;70.94
43155;BME280;34212;51.018;13.586;2024-01-11T13:37:46;98927.66;;;0.14;71.72
43155;BME280;34212;51.018;13.586;2024-01-11T13:42:47;98923.38;;;0.27;72.03
43155;BME280;34212;51.018;13.586;2024-01-11T13:47:50;98924.28;;;0.42;72.38
43155;BME280;34212;51.018;13.586;2024-01-11T13:52:52;98921.19;;;0.35;72.44
43155;BME280;34212;51.018;13.586;2024-01-11T13:57:53;98938.97;;;0.14;71.82
43155;BME280;34212;51.018;13.586;2024-01-11T14:02:55;98921.75;;;-0.06;70.57
43155;BME280;34212;51.018;13.586;2024-01-11T14:07:57;98918.97;;;-0.18;69.30
43155;BME280;34212;51.018;13.586;2024-01-11T14:13:02;98920.16;;;-0.24;67.39
43155;BME280;34212;51.018;13.586;2024-01-11T14:18:05;98933.50;;;-0.29;66.71
43155;BME280;34212;51.018;13.586;2024-01-11T14:23:08;98937.22;;;-0.33;66.55
43155;BME280;34212;51.018;13.586;2024-01-11T14:28:10;98924.56;;;-0.40;64.67
43155;BME280;34212;51.018;13.586;2024-01-11T14:33:11;98923.19;;;-0.48;64.13
43155;BME280;34212;51.018;13.586;2024-01-11T14:38:13;98933.59;;;-0.62;63.68
43155;BME280;34212;51.018;13.586;2024-01-11T14:43:14;98947.34;;;-0.74;63.66
43155;BME280;34212;51.018;13.586;2024-01-11T14:48:16;98943.56;;;-0.86;63.71
43155;BME280;34212;51.018;13.586;2024-01-11T14:53:18;98943.97;;;-0.94;64.11
43155;BME280;34212;51.018;13.586;2024-01-11T14:58:20;98948.84;;;-1.03;63.97
43155;BME280;34212;51.018;13.586;2024-01-11T15:03:22;98935.06;;;-1.07;64.85
43155;BME280;34212;51.018;13.586;2024-01-11T15:08:24;98949.25;;;-1.11;65.27
43155;BME280;34212;51.018;13.586;2024-01-11T15:13:25;98945.09;;;-1.15;65.78
43155;BME280;34212;51.018;13.586;2024-01-11T15:18:27;98941.25;;;-1.25;66.22
43155;BME280;34212;51.018;13.586;2024-01-11T15:23:29;98931.09;;;-1.31;66.61
43155;BME280;34212;51.018;13.586;2024-01-11T15:28:30;98931.53;;;-1.41;66.81
43155;BME280;34212;51.018;13.586;2024-01-11T15:33:32;98933.72;;;-1.49;66.99
43155;BME280;34212;51.018;13.586;2024-01-11T15:38:34;98943.06;;;-1.62;67.21
43155;BME280;34212;51.018;13.586;2024-01-11T15:43:36;98943.56;;;-1.71;67.36
43155;BME280;34212;51.018;13.586;2024-01-11T15:48:38;98955.22;;;-1.78;67.93
43155;BME280;34212;51.018;13.586;2024-01-11T15:53:39;98953.59;;;-1.81;68.49
43155;BME280;34212;51.018;13.586;2024-01-11T15:58:41;98952.00;;;-1.83;68.59
43155;BME280;34212;51.018;13.586;2024-01-11T16:03:43;98957.22;;;-1.83;68.99
43155;BME280;34212;51.018;13.586;2024-01-11T16:08:46;98951.06;;;-1.82;69.48
43155;BME280;34212;51.018;13.586;2024-01-11T16:13:51;98946.91;;;-1.87;69.69
43155;BME280;34212;51.018;13.586;2024-01-11T16:18:52;98935.53;;;-1.86;69.87
43155;BME280;34212;51.018;13.586;2024-01-11T16:23:54;98946.84;;;-1.85;70.40
43155;BME280;34212;51.018;13.586;2024-01-11T16:28:59;98953.06;;;-1.88;70.82
43155;BME280;34212;51.018;13.586;2024-01-11T16:34:01;98968.88;;;-1.91;70.42
43155;BME280;34212;51.018;13.586;2024-01-11T16:39:03;98983.47;;;-2.04;70.41
43155;BME280;34212;51.018;13.586;2024-01-11T16:44:09;99004.25;;;-2.20;70.02
43155;BME280;34212;51.018;13.586;2024-01-11T16:49:11;99025.66;;;-2.30;70.16
43155;BME280;34212;51.018;13.586;2024-01-11T16:54:14;99040.81;;;-2.39;70.35
43155;BME280;34212;51.018;13.586;2024-01-11T16:59:16;99026.84;;;-2.38;70.05
43155;BME280;34212;51.018;13.586;2024-01-11T17:04:20;99024.09;;;-2.35;70.52
43155;BME280;34212;51.018;13.586;2024-01-11T17:09:37;99032.84;;;-2.36;70.19
43155;BME280;34212;51.018;13.586;2024-01-11T17:16:02;99031.03;;;-2.34;69.92
43155;BME280;34212;51.018;13.586;2024-01-11T17:22:14;99031.38;;;-2.22;70.58
43155;BME280;34212;51.018;13.586;2024-01-11T17:27:35;99052.00;;;-2.16;70.55
43155;BME280;34212;51.018;13.586;2024-01-11T17:32:58;99053.69;;;-2.15;70.89
43155;BME280;34212;51.018;13.586;2024-01-11T17:39:19;99048.47;;;-2.15;70.81
43155;BME280;34212;51.018;13.586;2024-01-11T17:45:03;99047.19;;;-2.06;71.11
43155;BME280;34212;51.018;13.586;2024-01-11T17:50:13;99062.31;;;-2.13;71.23
43155;BME280;34212;51.018;13.586;2024-01-11T17:55:15;99080.88;;;-2.19;71.42
43155;BME280;34212;51.018;13.586;2024-01-11T18:00:16;99096.69;;;-2.22;71.52
43155;BME280;34212;51.018;13.586;2024-01-11T18:05:18;99096.22;;;-2.30;72.02
43155;BME280;34212;51.018;13.586;2024-01-11T18:10:24;99106.84;;;-2.35;72.09
43155;BME280;34212;51.018;13.586;2024-01-11T18:15:26;99110.56;;;-2.41;72.37
43155;BME280;34212;51.018;13.586;2024-01-11T18:20:27;99112.91;;;-2.35;72.75
43155;BME280;34212;51.018;13.586;2024-01-11T18:25:29;99113.31;;;-2.23;73.01
43155;BME280;34212;51.018;13.586;2024-01-11T18:30:31;99103.44;;;-1.98;73.65
43155;BME280;34212;51.018;13.586;2024-01-11T18:35:33;99103.25;;;-1.74;73.56
43155;BME280;34212;51.018;13.586;2024-01-11T18:40:35;99106.84;;;-1.58;73.41
43155;BME280;34212;51.018;13.586;2024-01-11T18:45:37;99104.41;;;-1.44;74.21
43155;BME280;34212;51.018;13.586;2024-01-11T18:50:39;99110.28;;;-1.38;73.84
43155;BME280;34212;51.018;13.586;2024-01-11T18:55:40;99114.97;;;-1.28;74.26
43155;BME280;34212;51.018;13.586;2024-01-11T19:00:42;99114.78;;;-1.23;74.78
43155;BME280;34212;51.018;13.586;2024-01-11T19:05:44;99119.78;;;-1.19;74.69
43155;BME280;34212;51.018;13.586;2024-01-11T19:10:45;99130.34;;;-1.20;74.91
43155;BME280;34212;51.018;13.586;2024-01-11T19:15:47;99122.00;;;-1.28;74.62
43155;BME280;34212;51.018;13.586;2024-01-11T19:20:52;99121.38;;;-1.33;75.08
43155;BME280;34212;51.018;13.586;2024-01-11T19:25:56;99132.00;;;-1.36;75.28
43155;BME280;34212;51.018;13.586;2024-01-11T19:30:58;99121.44;;;-1.35;75.44
43155;BME280;34212;51.018;13.586;2024-01-11T19:36:00;99122.47;;;-1.20;75.59
43155;BME280;34212;51.018;13.586;2024-01-11T19:41:01;99128.97;;;-1.10;75.55
43155;BME280;34212;51.018;13.586;2024-01-11T19:46:06;99120.59;;;-0.99;75.34
43155;BME280;34212;51.018;13.586;2024-01-11T19:51:11;99126.22;;;-0.89;75.69
43155;BME280;34212;51.018;13.586;2024-01-11T19:56:17;99116.28;;;-0.83;75.78
43155;BME280;34212;51.018;13.586;2024-01-11T20:01:19;99122.22;;;-0.79;75.87
43155;BME280;34212;51.018;13.586;2024-01-11T20:06:21;99116.81;;;-0.76;76.52
43155;BME280;34212;51.018;13.586;2024-01-11T20:11:23;99114.06;;;-0.73;76.22
43155;BME280;34212;51.018;13.586;2024-01-11T20:16:25;99112.97;;;-0.69;76.49
43155;BME280;34212;51.018;13.586;2024-01-11T20:21:27;99108.34;;;-0.64;76.96
43155;BME280;34212;51.018;13.586;2024-01-11T20:26:29;99092.38;;;-0.59;77.02
43155;BME280;34212;51.018;13.586;2024-01-11T20:31:31;99098.34;;;-0.56;76.99
43155;BME280;34212;51.018;13.586;2024-01-11T20:36:32;99096.41;;;-0.52;76.78
43155;BME280;34212;51.018;13.586;2024-01-11T20:41:34;99092.78;;;-0.50;76.79
43155;BME280;34212;51.018;13.586;2024-01-11T20:46:43;99104.00;;;-0.48;77.03
43155;BME280;34212;51.018;13.586;2024-01-11T20:51:45;99099.72;;;-0.49;76.91
43155;BME280;34212;51.018;13.586;2024-01-11T20:56:47;99103.25;;;-0.50;77.12
43155;BME280;34212;51.018;13.586;2024-01-11T21:01:48;99106.72;;;-0.49;77.16
43155;BME280;34212;51.018;13.586;2024-01-11T21:06:50;99106.47;;;-0.44;77.40
43155;BME280;34212;51.018;13.586;2024-01-11T21:11:52;99109.09;;;-0.44;77.05
43155;BME280;34212;51.018;13.586;2024-01-11T21:16:53;99093.47;;;-0.46;77.53
43155;BME280;34212;51.018;13.586;2024-01-11T21:21:55;99113.59;;;-0.47;77.41
43155;BME280;34212;51.018;13.586;2024-01-11T21:26:56;99105.72;;;-0.47;77.40
43155;BME280;34212;51.018;13.586;2024-01-11T21:31:58;99125.13;;;-0.51;77.23
43155;BME280;34212;51.018;13.586;2024-01-11T21:37:00;99131.78;;;-0.61;77.81
43155;BME280;34212;51.018;13.586;2024-01-11T21:42:01;99135.94;;;-0.74;77.99
43155;BME280;34212;51.018;13.586;2024-01-11T21:47:03;99146.03;;;-0.84;78.18
43155;BME280;34212;51.018;13.586;2024-01-11T21:52:05;99151.72;;;-0.93;78.68
43155;BME280;34212;51.018;13.586;2024-01-11T21:57:07;99161.41;;;-0.95;78.49
43155;BME280;34212;51.018;13.586;2024-01-11T22:02:09;99160.44;;;-0.93;79.16
43155;BME280;34212;51.018;13.586;2024-01-11T22:07:10;99143.94;;;-0.95;79.14
43155;BME280;34212;51.018;13.586;2024-01-11T22:12:13;99154.09;;;-0.88;78.98
43155;BME280;34212;51.018;13.586;2024-01-11T22:17:15;99141.00;;;-0.88;79.12
43155;BME280;34212;51.018;13.586;2024-01-11T22:22:17;99147.88;;;-0.86;79.31
43155;BME280;34212;51.018;13.586;2024-01-11T22:27:18;99140.34;;;-0.75;79.04
43155;BME280;34212;51.018;13.586;2024-01-11T22:32:20;99142.88;;;-0.73;78.73
43155;BME280;34212;51.018;13.586;2024-01-11T22:37:21;99134.22;;;-0.75;78.87
43155;BME280;34212;51.018;13.586;2024-01-11T22:42:23;99145.78;;;-0.79;79.06
